sensor_id;sensor_type;location;lat;lon;timestamp;P1;durP1;ratioP1;P2;durP2;ratioP2
35745;SDS011;21870;42.812;74.628;2024-03-23T00:53:52;4.38;;;3.97;;
35745;SDS011;21870;42.812;74.628;2024-03-23T00:56:18;6.57;;;4.70;;
35745;SDS011;21870;42.812;74.628;2024-03-23T00:58:44;4.13;;;3.83;;
35745;SDS011;21870;42.812;74.628;2024-03-23T01:01:10;4.78;;;4.32;;
35745;SDS011;21870;42.812;74.628;2024-03-23T01:03:36;4.30;;;3.90;;
35745;SDS011;21870;42.812;74.628;2024-03-23T01:06:03;4.57;;;3.70;;
35745;SDS011;21870;42.812;74.628;2024-03-23T01:08:29;26.73;;;6.22;;
35745;SDS011;21870;42.812;74.628;2024-03-23T01:13:25;7.88;;;4.88;;
35745;SDS011;21870;42.812;74.628;2024-03-23T01:15:52;18.63;;;5.90;;
35745;SDS011;21870;42.812;74.628;2024-03-23T01:18:20;4.65;;;3.30;;
35745;SDS011;21870;42.812;74.628;2024-03-23T01:20:46;4.72;;;4.20;;
35745;SDS011;21870;42.812;74.628;2024-03-23T01:23:13;4.38;;;3.97;;
35745;SDS011;21870;42.812;74.628;2024-03-23T01:25:39;4.25;;;3.80;;
35745;SDS011;21870;42.812;74.628;2024-03-23T01:28:06;4.57;;;4.18;;
35745;SDS011;21870;42.812;74.628;2024-03-23T01:30:33;4.43;;;4.03;;
35745;SDS011;21870;42.812;74.628;2024-03-23T01:32:59;4.97;;;4.47;;
35745;SDS011;21870;42.812;74.628;2024-03-23T01:35:26;6.95;;;5.88;;
35745;SDS011;21870;42.812;74.628;2024-03-23T01:37:52;5.63;;;4.53;;
35745;SDS011;21870;42.812;74.628;2024-03-23T01:40:18;11.35;;;9.50;;
35745;SDS011;21870;42.812;74.628;2024-03-23T01:42:57;3.67;;;3.38;;
35745;SDS011;21870;42.812;74.628;2024-03-23T01:45:27;3.78;;;3.40;;
35745;SDS011;21870;42.812;74.628;2024-03-23T01:47:53;9.18;;;8.27;;
35745;SDS011;21870;42.812;74.628;2024-03-23T01:50:19;3.80;;;3.50;;
35745;SDS011;21870;42.812;74.628;2024-03-23T01:52:46;4.85;;;4.25;;
35745;SDS011;21870;42.812;74.628;2024-03-23T01:55:13;5.30;;;3.80;;
35745;SDS011;21870;42.812;74.628;2024-03-23T01:57:39;3.85;;;3.55;;
35745;SDS011;21870;42.812;74.628;2024-03-23T02:00:05;4.40;;;4.00;;
35745;SDS011;21870;42.812;74.628;2024-03-23T02:02:32;4.53;;;4.15;;
35745;SDS011;21870;42.812;74.628;2024-03-23T02:04:58;3.97;;;3.67;;
35745;SDS011;21870;42.812;74.628;2024-03-23T02:07:24;3.53;;;3.22;;
35745;SDS011;21870;42.812;74.628;2024-03-23T02:09:51;5.20;;;3.55;;
35745;SDS011;21870;42.812;74.628;2024-03-23T02:12:17;4.97;;;4.43;;
35745;SDS011;21870;42.812;74.628;2024-03-23T02:14:44;4.50;;;4.10;;
35745;SDS011;21870;42.812;74.628;2024-03-23T02:17:10;5.97;;;4.47;;
35745;SDS011;21870;42.812;74.628;2024-03-23T02:19:36;5.70;;;4.65;;
35745;SDS011;21870;42.812;74.628;2024-03-23T02:22:02;5.35;;;4.85;;
35745;SDS011;21870;42.812;74.628;2024-03-23T02:24:29;4.10;;;3.80;;
35745;SDS011;21870;42.812;74.628;2024-03-23T02:26:55;3.80;;;3.25;;
35745;SDS011;21870;42.812;74.628;2024-03-23T02:29:21;4.07;;;3.78;;
35745;SDS011;21870;42.812;74.628;2024-03-23T02:31:47;3.65;;;3.42;;
35745;SDS011;21870;42.812;74.628;2024-03-23T02:34:13;3.80;;;3.50;;
35745;SDS011;21870;42.812;74.628;2024-03-23T02:36:39;3.45;;;3.20;;
35745;SDS011;21870;42.812;74.628;2024-03-23T02:39:05;4.05;;;3.75;;
35745;SDS011;21870;42.812;74.628;2024-03-23T02:41:31;4.30;;;4.00;;
35745;SDS011;21870;42.812;74.628;2024-03-23T02:43:57;4.28;;;3.83;;
35745;SDS011;21870;42.812;74.628;2024-03-23T02:46:23;4.97;;;4.00;;
35745;SDS011;21870;42.812;74.628;2024-03-23T02:48:49;3.80;;;3.50;;
35745;SDS011;21870;42.812;74.628;2024-03-23T02:51:15;4.30;;;3.97;;
35745;SDS011;21870;42.812;74.628;2024-03-23T02:53:41;4.60;;;4.20;;
35745;SDS011;21870;42.812;74.628;2024-03-23T02:56:07;3.50;;;3.20;;
35745;SDS011;21870;42.812;74.628;2024-03-23T02:58:33;3.85;;;3.55;;
35745;SDS011;21870;42.812;74.628;2024-03-23T03:00:59;4.05;;;3.67;;
35745;SDS011;21870;42.812;74.628;2024-03-23T03:03:25;3.08;;;2.85;;
35745;SDS011;21870;42.812;74.628;2024-03-23T03:05:55;3.15;;;2.25;;
35745;SDS011;21870;42.812;74.628;2024-03-23T03:08:21;2.67;;;2.47;;
35745;SDS011;21870;42.812;74.628;2024-03-23T03:10:47;2.70;;;2.47;;
35745;SDS011;21870;42.812;74.628;2024-03-23T03:13:14;2.58;;;2.38;;
35745;SDS011;21870;42.812;74.628;2024-03-23T03:15:43;2.20;;;2.00;;
35745;SDS011;21870;42.812;74.628;2024-03-23T03:18:09;3.28;;;2.08;;
35745;SDS011;21870;42.812;74.628;2024-03-23T03:20:38;2.28;;;2.05;;
35745;SDS011;21870;42.812;74.628;2024-03-23T03:23:05;1.88;;;1.70;;
35745;SDS011;21870;42.812;74.628;2024-03-23T03:25:32;1.58;;;1.48;;
35745;SDS011;21870;42.812;74.628;2024-03-23T03:27:58;1.25;;;1.25;;
35745;SDS011;21870;42.812;74.628;2024-03-23T03:30:24;1.73;;;1.60;;
35745;SDS011;21870;42.812;74.628;2024-03-23T03:32:53;1.83;;;1.38;;
35745;SDS011;21870;42.812;74.628;2024-03-23T03:35:19;2.70;;;2.50;;
35745;SDS011;21870;42.812;74.628;2024-03-23T03:37:46;3.63;;;2.60;;
35745;SDS011;21870;42.812;74.628;2024-03-23T03:40:12;2.17;;;1.90;;
35745;SDS011;21870;42.812;74.628;2024-03-23T03:42:40;1.90;;;1.80;;
35745;SDS011;21870;42.812;74.628;2024-03-23T03:45:06;4.57;;;2.10;;
35745;SDS011;21870;42.812;74.628;2024-03-23T03:47:33;1.63;;;1.42;;
35745;SDS011;21870;42.812;74.628;2024-03-23T03:49:59;1.13;;;1.00;;
35745;SDS011;21870;42.812;74.628;2024-03-23T03:52:25;2.60;;;1.50;;
35745;SDS011;21870;42.812;74.628;2024-03-23T03:54:51;2.75;;;1.80;;
35745;SDS011;21870;42.812;74.628;2024-03-23T03:57:19;2.58;;;1.95;;
35745;SDS011;21870;42.812;74.628;2024-03-23T03:59:45;1.80;;;1.70;;
35745;SDS011;21870;42.812;74.628;2024-03-23T04:02:11;1.48;;;1.38;;
35745;SDS011;21870;42.812;74.628;2024-03-23T04:04:37;1.13;;;1.02;;
35745;SDS011;21870;42.812;74.628;2024-03-23T04:07:03;1.80;;;1.70;;
35745;SDS011;21870;42.812;74.628;2024-03-23T04:09:30;1.63;;;1.52;;
35745;SDS011;21870;42.812;74.628;2024-03-23T04:11:56;1.92;;;1.65;;
35745;SDS011;21870;42.812;74.628;2024-03-23T04:14:22;1.33;;;1.20;;
35745;SDS011;21870;42.812;74.628;2024-03-23T04:16:48;1.42;;;1.33;;
35745;SDS011;21870;42.812;74.628;2024-03-23T04:19:15;1.60;;;1.50;;
35745;SDS011;21870;42.812;74.628;2024-03-23T04:21:41;2.65;;;1.80;;
35745;SDS011;21870;42.812;74.628;2024-03-23T04:24:07;2.63;;;1.83;;
35745;SDS011;21870;42.812;74.628;2024-03-23T04:26:42;1.27;;;1.17;;
35745;SDS011;21870;42.812;74.628;2024-03-23T04:29:08;2.28;;;1.30;;
35745;SDS011;21870;42.812;74.628;2024-03-23T04:31:34;1.20;;;1.10;;
35745;SDS011;21870;42.812;74.628;2024-03-23T04:34:01;1.38;;;1.27;;
35745;SDS011;21870;42.812;74.628;2024-03-23T04:36:27;0.60;;;0.60;;
35745;SDS011;21870;42.812;74.628;2024-03-23T04:38:53;1.45;;;0.70;;
35745;SDS011;21870;42.812;74.628;2024-03-23T04:41:19;2.10;;;0.60;;
35745;SDS011;21870;42.812;74.628;2024-03-23T04:43:45;1.67;;;0.70;;
35745;SDS011;21870;42.812;74.628;2024-03-23T04:46:11;1.77;;;0.60;;
35745;SDS011;21870;42.812;74.628;2024-03-23T04:48:37;0.50;;;0.50;;
35745;SDS011;21870;42.812;74.628;2024-03-23T04:51:04;0.70;;;0.70;;
35745;SDS011;21870;42.812;74.628;2024-03-23T04:53:30;0.50;;;0.50;;
35745;SDS011;21870;42.812;74.628;2024-03-23T04:55:56;0.47;;;0.47;;
35745;SDS011;21870;42.812;74.628;2024-03-23T04:58:24;2.42;;;0.70;;
35745;SDS011;21870;42.812;74.628;2024-03-23T05:00:54;0.50;;;0.50;;
35745;SDS011;21870;42.812;74.628;2024-03-23T05:03:20;0.70;;;0.70;;
35745;SDS011;21870;42.812;74.628;2024-03-23T05:05:47;0.50;;;0.50;;
35745;SDS011;21870;42.812;74.628;2024-03-23T05:08:14;0.50;;;0.50;;
35745;SDS011;21870;42.812;74.628;2024-03-23T05:10:41;0.30;;;0.30;;
35745;SDS011;21870;42.812;74.628;2024-03-23T05:13:07;0.82;;;0.52;;
35745;SDS011;21870;42.812;74.628;2024-03-23T05:15:34;0.65;;;0.40;;
35745;SDS011;21870;42.812;74.628;2024-03-23T05:18:00;0.80;;;0.55;;
35745;SDS011;21870;42.812;74.628;2024-03-23T05:20:26;2.15;;;0.50;;
35745;SDS011;21870;42.812;74.628;2024-03-23T05:22:52;0.65;;;0.57;;
35745;SDS011;21870;42.812;74.628;2024-03-23T05:25:20;0.65;;;0.65;;
35745;SDS011;21870;42.812;74.628;2024-03-23T05:27:46;0.63;;;0.63;;
35745;SDS011;21870;42.812;74.628;2024-03-23T05:30:12;1.10;;;0.70;;
35745;SDS011;21870;42.812;74.628;2024-03-23T05:32:38;1.35;;;1.10;;
35745;SDS011;21870;42.812;74.628;2024-03-23T05:35:06;0.88;;;0.70;;
35745;SDS011;21870;42.812;74.628;2024-03-23T05:37:33;1.60;;;0.80;;
35745;SDS011;21870;42.812;74.628;2024-03-23T05:39:59;3.83;;;1.02;;
35745;SDS011;21870;42.812;74.628;2024-03-23T05:42:26;1.10;;;1.00;;
35745;SDS011;21870;42.812;74.628;2024-03-23T05:44:52;2.30;;;0.70;;
35745;SDS011;21870;42.812;74.628;2024-03-23T05:47:18;1.95;;;0.80;;
35745;SDS011;21870;42.812;74.628;2024-03-23T05:49:45;0.80;;;0.80;;
35745;SDS011;21870;42.812;74.628;2024-03-23T05:52:12;2.05;;;1.00;;
35745;SDS011;21870;42.812;74.628;2024-03-23T05:54:38;0.63;;;0.63;;
35745;SDS011;21870;42.812;74.628;2024-03-23T05:57:06;0.70;;;0.70;;
35745;SDS011;21870;42.812;74.628;2024-03-23T05:59:34;2.35;;;0.75;;
35745;SDS011;21870;42.812;74.628;2024-03-23T06:02:00;0.80;;;0.80;;
35745;SDS011;21870;42.812;74.628;2024-03-23T06:04:26;2.45;;;0.90;;
35745;SDS011;21870;42.812;74.628;2024-03-23T06:06:52;0.88;;;0.68;;
35745;SDS011;21870;42.812;74.628;2024-03-23T06:09:19;3.33;;;0.90;;
35745;SDS011;21870;42.812;74.628;2024-03-23T06:11:45;2.38;;;0.70;;
35745;SDS011;21870;42.812;74.628;2024-03-23T06:14:11;0.63;;;0.63;;
35745;SDS011;21870;42.812;74.628;2024-03-23T06:16:37;0.70;;;0.70;;
35745;SDS011;21870;42.812;74.628;2024-03-23T06:19:03;0.80;;;0.80;;
35745;SDS011;21870;42.812;74.628;2024-03-23T06:21:32;1.40;;;0.80;;
35745;SDS011;21870;42.812;74.628;2024-03-23T06:23:58;0.85;;;0.85;;
35745;SDS011;21870;42.812;74.628;2024-03-23T06:26:24;0.80;;;0.80;;
35745;SDS011;21870;42.812;74.628;2024-03-23T06:28:50;0.63;;;0.63;;
35745;SDS011;21870;42.812;74.628;2024-03-23T06:31:16;4.40;;;1.10;;
35745;SDS011;21870;42.812;74.628;2024-03-23T06:33:43;1.15;;;0.90;;
35745;SDS011;21870;42.812;74.628;2024-03-23T06:36:09;6.38;;;1.10;;
35745;SDS011;21870;42.812;74.628;2024-03-23T06:38:38;1.42;;;1.17;;
35745;SDS011;21870;42.812;74.628;2024-03-23T06:41:05;0.90;;;0.90;;
35745;SDS011;21870;42.812;74.628;2024-03-23T06:43:31;0.73;;;0.73;;
35745;SDS011;21870;42.812;74.628;2024-03-23T06:45:57;4.43;;;0.93;;
35745;SDS011;21870;42.812;74.628;2024-03-23T06:48:23;1.02;;;1.00;;
35745;SDS011;21870;42.812;74.628;2024-03-23T06:50:49;1.35;;;1.23;;
35745;SDS011;21870;42.812;74.628;2024-03-23T06:53:20;1.05;;;1.05;;
35745;SDS011;21870;42.812;74.628;2024-03-23T06:55:49;1.30;;;1.27;;
35745;SDS011;21870;42.812;74.628;2024-03-23T06:58:17;1.48;;;1.33;;
35745;SDS011;21870;42.812;74.628;2024-03-23T07:00:44;0.90;;;0.85;;
35745;SDS011;21870;42.812;74.628;2024-03-23T07:03:10;0.88;;;0.88;;
35745;SDS011;21870;42.812;74.628;2024-03-23T07:05:36;1.35;;;1.27;;
35745;SDS011;21870;42.812;74.628;2024-03-23T07:08:02;0.80;;;0.80;;
35745;SDS011;21870;42.812;74.628;2024-03-23T07:10:28;1.00;;;0.98;;
35745;SDS011;21870;42.812;74.628;2024-03-23T07:12:54;1.45;;;1.10;;
35745;SDS011;21870;42.812;74.628;2024-03-23T07:15:20;2.58;;;0.90;;
35745;SDS011;21870;42.812;74.628;2024-03-23T07:17:46;1.10;;;1.00;;
35745;SDS011;21870;42.812;74.628;2024-03-23T07:20:13;0.77;;;0.77;;
35745;SDS011;21870;42.812;74.628;2024-03-23T07:22:39;0.90;;;0.70;;
35745;SDS011;21870;42.812;74.628;2024-03-23T07:25:05;3.03;;;1.20;;
35745;SDS011;21870;42.812;74.628;2024-03-23T07:27:32;1.50;;;1.15;;
35745;SDS011;21870;42.812;74.628;2024-03-23T07:29:59;2.97;;;1.02;;
35745;SDS011;21870;42.812;74.628;2024-03-23T07:32:26;2.20;;;1.30;;
35745;SDS011;21870;42.812;74.628;2024-03-23T07:34:52;1.83;;;1.60;;
35745;SDS011;21870;42.812;74.628;2024-03-23T07:37:18;1.70;;;0.93;;
35745;SDS011;21870;42.812;74.628;2024-03-23T07:39:44;4.20;;;1.40;;
35745;SDS011;21870;42.812;74.628;2024-03-23T07:42:10;4.72;;;1.40;;
35745;SDS011;21870;42.812;74.628;2024-03-23T07:44:36;5.30;;;1.77;;
35745;SDS011;21870;42.812;74.628;2024-03-23T07:47:03;2.03;;;1.83;;
35745;SDS011;21870;42.812;74.628;2024-03-23T07:49:29;8.38;;;2.55;;
35745;SDS011;21870;42.812;74.628;2024-03-23T07:51:55;7.65;;;2.40;;
35745;SDS011;21870;42.812;74.628;2024-03-23T07:54:21;12.07;;;2.42;;
35745;SDS011;21870;42.812;74.628;2024-03-23T07:56:50;5.68;;;2.67;;
35745;SDS011;21870;42.812;74.628;2024-03-23T07:59:16;12.05;;;3.10;;
35745;SDS011;21870;42.812;74.628;2024-03-23T08:01:43;11.43;;;2.90;;
35745;SDS011;21870;42.812;74.628;2024-03-23T08:04:09;14.35;;;3.15;;
35745;SDS011;21870;42.812;74.628;2024-03-23T08:06:35;8.30;;;2.80;;
35745;SDS011;21870;42.812;74.628;2024-03-23T08:09:03;6.03;;;2.40;;
35745;SDS011;21870;42.812;74.628;2024-03-23T08:11:29;10.73;;;2.85;;
35745;SDS011;21870;42.812;74.628;2024-03-23T08:13:57;15.45;;;3.30;;
35745;SDS011;21870;42.812;74.628;2024-03-23T08:16:23;11.20;;;4.55;;
35745;SDS011;21870;42.812;74.628;2024-03-23T08:18:52;13.52;;;4.40;;
35745;SDS011;21870;42.812;74.628;2024-03-23T08:21:20;21.48;;;4.93;;
35745;SDS011;21870;42.812;74.628;2024-03-23T08:23:46;23.20;;;4.22;;
35745;SDS011;21870;42.812;74.628;2024-03-23T08:26:14;15.43;;;3.90;;
35745;SDS011;21870;42.812;74.628;2024-03-23T08:28:41;19.67;;;4.63;;
35745;SDS011;21870;42.812;74.628;2024-03-23T08:31:08;12.05;;;3.65;;
35745;SDS011;21870;42.812;74.628;2024-03-23T08:33:35;10.00;;;3.50;;
35745;SDS011;21870;42.812;74.628;2024-03-23T08:36:03;12.15;;;3.38;;
35745;SDS011;21870;42.812;74.628;2024-03-23T08:38:33;12.68;;;3.92;;
35745;SDS011;21870;42.812;74.628;2024-03-23T08:41:03;13.35;;;4.05;;
35745;SDS011;21870;42.812;74.628;2024-03-23T08:43:37;5.20;;;2.70;;
35745;SDS011;21870;42.812;74.628;2024-03-23T08:46:08;7.53;;;3.25;;
35745;SDS011;21870;42.812;74.628;2024-03-23T08:48:36;12.25;;;3.17;;
35745;SDS011;21870;42.812;74.628;2024-03-23T08:51:08;4.38;;;2.53;;
35745;SDS011;21870;42.812;74.628;2024-03-23T08:53:35;5.80;;;2.15;;
35745;SDS011;21870;42.812;74.628;2024-03-23T08:56:02;3.88;;;2.65;;
35745;SDS011;21870;42.812;74.628;2024-03-23T08:58:30;10.63;;;2.65;;
35745;SDS011;21870;42.812;74.628;2024-03-23T09:01:02;8.27;;;3.10;;
35745;SDS011;21870;42.812;74.628;2024-03-23T09:03:29;7.25;;;2.55;;
35745;SDS011;21870;42.812;74.628;2024-03-23T09:05:56;11.32;;;3.30;;
35745;SDS011;21870;42.812;74.628;2024-03-23T09:08:23;6.05;;;2.95;;
35745;SDS011;21870;42.812;74.628;2024-03-23T09:10:49;4.07;;;2.22;;
35745;SDS011;21870;42.812;74.628;2024-03-23T09:13:15;14.20;;;3.22;;
35745;SDS011;21870;42.812;74.628;2024-03-23T09:15:48;5.32;;;2.20;;
35745;SDS011;21870;42.812;74.628;2024-03-23T09:18:16;2.67;;;1.70;;
35745;SDS011;21870;42.812;74.628;2024-03-23T09:20:42;1.98;;;1.70;;
35745;SDS011;21870;42.812;74.628;2024-03-23T09:23:08;2.60;;;1.75;;
35745;SDS011;21870;42.812;74.628;2024-03-23T09:25:38;1.52;;;1.42;;
35745;SDS011;21870;42.812;74.628;2024-03-23T09:28:07;10.90;;;1.80;;
35745;SDS011;21870;42.812;74.628;2024-03-23T09:30:34;11.00;;;2.17;;
35745;SDS011;21870;42.812;74.628;2024-03-23T09:33:00;5.15;;;2.35;;
35745;SDS011;21870;42.812;74.628;2024-03-23T09:35:28;3.90;;;1.95;;
35745;SDS011;21870;42.812;74.628;2024-03-23T09:37:54;6.45;;;1.83;;
35745;SDS011;21870;42.812;74.628;2024-03-23T09:40:20;3.95;;;1.55;;
35745;SDS011;21870;42.812;74.628;2024-03-23T09:42:49;2.72;;;1.70;;
35745;SDS011;21870;42.812;74.628;2024-03-23T09:45:26;4.50;;;1.73;;
35745;SDS011;21870;42.812;74.628;2024-03-23T09:47:54;3.33;;;1.35;;
35745;SDS011;21870;42.812;74.628;2024-03-23T09:50:21;3.17;;;1.45;;
35745;SDS011;21870;42.812;74.628;2024-03-23T09:52:48;1.10;;;1.10;;
35745;SDS011;21870;42.812;74.628;2024-03-23T09:55:14;6.38;;;1.48;;
35745;SDS011;21870;42.812;74.628;2024-03-23T09:57:40;4.18;;;1.55;;
35745;SDS011;21870;42.812;74.628;2024-03-23T10:00:07;3.08;;;1.50;;
35745;SDS011;21870;42.812;74.628;2024-03-23T10:02:34;1.92;;;1.40;;
35745;SDS011;21870;42.812;74.628;2024-03-23T10:05:01;5.20;;;2.78;;
35745;SDS011;21870;42.812;74.628;2024-03-23T10:07:27;1.70;;;1.60;;
35745;SDS011;21870;42.812;74.628;2024-03-23T10:09:54;2.65;;;1.33;;
35745;SDS011;21870;42.812;74.628;2024-03-23T10:12:20;2.70;;;1.40;;
35745;SDS011;21870;42.812;74.628;2024-03-23T10:14:46;2.92;;;1.40;;
35745;SDS011;21870;42.812;74.628;2024-03-23T10:17:17;6.00;;;1.80;;
35745;SDS011;21870;42.812;74.628;2024-03-23T10:19:51;7.07;;;2.35;;
35745;SDS011;21870;42.812;74.628;2024-03-23T10:24:45;9.25;;;3.13;;
35745;SDS011;21870;42.812;74.628;2024-03-23T10:27:18;6.63;;;2.15;;
35745;SDS011;21870;42.812;74.628;2024-03-23T10:29:48;5.22;;;2.40;;
35745;SDS011;21870;42.812;74.628;2024-03-23T10:32:18;4.63;;;2.20;;
35745;SDS011;21870;42.812;74.628;2024-03-23T10:34:44;8.48;;;2.83;;
35745;SDS011;21870;42.812;74.628;2024-03-23T10:37:10;5.82;;;2.33;;
35745;SDS011;21870;42.812;74.628;2024-03-23T10:39:40;5.47;;;2.03;;
35745;SDS011;21870;42.812;74.628;2024-03-23T10:42:07;2.30;;;2.10;;
35745;SDS011;21870;42.812;74.628;2024-03-23T10:44:37;9.25;;;3.25;;
35745;SDS011;21870;42.812;74.628;2024-03-23T10:47:04;15.73;;;4.05;;
35745;SDS011;21870;42.812;74.628;2024-03-23T10:49:34;32.70;;;6.15;;
35745;SDS011;21870;42.812;74.628;2024-03-23T10:52:04;7.18;;;2.90;;
35745;SDS011;21870;42.812;74.628;2024-03-23T10:54:31;8.55;;;3.42;;
35745;SDS011;21870;42.812;74.628;2024-03-23T10:59:33;9.48;;;3.28;;
35745;SDS011;21870;42.812;74.628;2024-03-23T11:02:00;11.02;;;3.25;;
35745;SDS011;21870;42.812;74.628;2024-03-23T11:07:01;26.80;;;5.80;;
35745;SDS011;21870;42.812;74.628;2024-03-23T11:09:40;17.80;;;4.38;;
35745;SDS011;21870;42.812;74.628;2024-03-23T11:14:56;14.95;;;4.25;;
35745;SDS011;21870;42.812;74.628;2024-03-23T11:17:28;25.98;;;5.20;;
35745;SDS011;21870;42.812;74.628;2024-03-23T11:19:58;11.02;;;4.05;;
35745;SDS011;21870;42.812;74.628;2024-03-23T11:22:40;13.55;;;5.10;;
35745;SDS011;21870;42.812;74.628;2024-03-23T11:25:18;17.42;;;5.05;;
35745;SDS011;21870;42.812;74.628;2024-03-23T11:27:46;21.55;;;4.13;;
35745;SDS011;21870;42.812;74.628;2024-03-23T11:30:20;20.48;;;4.28;;
35745;SDS011;21870;42.812;74.628;2024-03-23T11:32:47;32.22;;;5.47;;
35745;SDS011;21870;42.812;74.628;2024-03-23T11:35:47;17.70;;;4.68;;
35745;SDS011;21870;42.812;74.628;2024-03-23T11:38:10;12.45;;;4.70;;
35745;SDS011;21870;42.812;74.628;2024-03-23T11:40:43;8.88;;;4.15;;
35745;SDS011;21870;42.812;74.628;2024-03-23T11:43:17;9.48;;;4.05;;
35745;SDS011;21870;42.812;74.628;2024-03-23T11:45:49;13.63;;;4.45;;
35745;SDS011;21870;42.812;74.628;2024-03-23T11:48:20;10.48;;;3.92;;
35745;SDS011;21870;42.812;74.628;2024-03-23T11:50:48;7.43;;;3.17;;
35745;SDS011;21870;42.812;74.628;2024-03-23T11:53:16;7.25;;;3.15;;
35745;SDS011;21870;42.812;74.628;2024-03-23T11:55:45;6.82;;;3.00;;
35745;SDS011;21870;42.812;74.628;2024-03-23T11:58:12;10.30;;;2.70;;
35745;SDS011;21870;42.812;74.628;2024-03-23T12:00:38;4.93;;;2.35;;
35745;SDS011;21870;42.812;74.628;2024-03-23T12:03:05;5.97;;;2.65;;
35745;SDS011;21870;42.812;74.628;2024-03-23T12:05:32;5.40;;;2.70;;
35745;SDS011;21870;42.812;74.628;2024-03-23T12:10:48;6.22;;;2.38;;
35745;SDS011;21870;42.812;74.628;2024-03-23T12:13:19;3.42;;;2.60;;
35745;SDS011;21870;42.812;74.628;2024-03-23T12:15:47;11.68;;;2.83;;
35745;SDS011;21870;42.812;74.628;2024-03-23T12:18:17;5.07;;;2.83;;
35745;SDS011;21870;42.812;74.628;2024-03-23T12:20:48;8.48;;;3.65;;
35745;SDS011;21870;42.812;74.628;2024-03-23T12:23:14;4.88;;;4.30;;
35745;SDS011;21870;42.812;74.628;2024-03-23T12:25:41;3.15;;;2.33;;
35745;SDS011;21870;42.812;74.628;2024-03-23T12:28:07;8.40;;;2.95;;
35745;SDS011;21870;42.812;74.628;2024-03-23T12:30:34;7.25;;;2.97;;
35745;SDS011;21870;42.812;74.628;2024-03-23T12:33:04;18.75;;;12.95;;
35745;SDS011;21870;42.812;74.628;2024-03-23T12:35:31;11.32;;;3.72;;
35745;SDS011;21870;42.812;74.628;2024-03-23T12:37:57;6.05;;;3.10;;
35745;SDS011;21870;42.812;74.628;2024-03-23T12:40:23;15.30;;;5.07;;
35745;SDS011;21870;42.812;74.628;2024-03-23T12:42:50;17.58;;;4.18;;
35745;SDS011;21870;42.812;74.628;2024-03-23T12:45:16;7.47;;;2.83;;
35745;SDS011;21870;42.812;74.628;2024-03-23T12:47:42;9.45;;;3.58;;
35745;SDS011;21870;42.812;74.628;2024-03-23T12:50:08;6.78;;;2.83;;
35745;SDS011;21870;42.812;74.628;2024-03-23T12:52:35;13.25;;;3.45;;
35745;SDS011;21870;42.812;74.628;2024-03-23T12:55:01;14.02;;;4.25;;
35745;SDS011;21870;42.812;74.628;2024-03-23T12:57:29;9.85;;;3.50;;
35745;SDS011;21870;42.812;74.628;2024-03-23T12:59:55;5.05;;;2.67;;
35745;SDS011;21870;42.812;74.628;2024-03-23T13:02:21;6.47;;;2.97;;
35745;SDS011;21870;42.812;74.628;2024-03-23T13:04:51;8.07;;;4.03;;
35745;SDS011;21870;42.812;74.628;2024-03-23T13:07:18;9.80;;;3.28;;
35745;SDS011;21870;42.812;74.628;2024-03-23T13:09:45;10.43;;;4.00;;
35745;SDS011;21870;42.812;74.628;2024-03-23T13:12:12;9.00;;;4.15;;
35745;SDS011;21870;42.812;74.628;2024-03-23T13:14:38;17.75;;;4.15;;
35745;SDS011;21870;42.812;74.628;2024-03-23T13:17:05;10.70;;;3.65;;
35745;SDS011;21870;42.812;74.628;2024-03-23T13:19:32;6.80;;;3.45;;
35745;SDS011;21870;42.812;74.628;2024-03-23T13:21:58;4.95;;;3.30;;
35745;SDS011;21870;42.812;74.628;2024-03-23T13:24:25;18.65;;;4.78;;
35745;SDS011;21870;42.812;74.628;2024-03-23T13:26:53;6.18;;;3.80;;
35745;SDS011;21870;42.812;74.628;2024-03-23T13:29:19;9.77;;;4.28;;
35745;SDS011;21870;42.812;74.628;2024-03-23T13:31:46;11.52;;;7.90;;
35745;SDS011;21870;42.812;74.628;2024-03-23T13:34:13;10.93;;;3.78;;
35745;SDS011;21870;42.812;74.628;2024-03-23T13:36:43;18.73;;;5.22;;
35745;SDS011;21870;42.812;74.628;2024-03-23T13:39:10;10.52;;;3.78;;
35745;SDS011;21870;42.812;74.628;2024-03-23T13:41:40;19.15;;;5.03;;
35745;SDS011;21870;42.812;74.628;2024-03-23T13:44:07;19.50;;;5.93;;
35745;SDS011;21870;42.812;74.628;2024-03-23T13:46:35;25.15;;;16.23;;
35745;SDS011;21870;42.812;74.628;2024-03-23T13:49:02;42.85;;;15.63;;
35745;SDS011;21870;42.812;74.628;2024-03-23T13:51:29;18.85;;;10.27;;
35745;SDS011;21870;42.812;74.628;2024-03-23T13:53:55;9.63;;;7.35;;
35745;SDS011;21870;42.812;74.628;2024-03-23T13:56:22;65.40;;;16.92;;
35745;SDS011;21870;42.812;74.628;2024-03-23T13:58:51;34.00;;;11.52;;
35745;SDS011;21870;42.812;74.628;2024-03-23T14:01:17;52.85;;;13.70;;
35745;SDS011;21870;42.812;74.628;2024-03-23T14:03:43;22.48;;;11.23;;
35745;SDS011;21870;42.812;74.628;2024-03-23T14:06:10;21.02;;;13.77;;
35745;SDS011;21870;42.812;74.628;2024-03-23T14:08:37;25.33;;;11.02;;
35745;SDS011;21870;42.812;74.628;2024-03-23T14:11:07;22.67;;;11.65;;
35745;SDS011;21870;42.812;74.628;2024-03-23T14:13:36;20.83;;;11.40;;
35745;SDS011;21870;42.812;74.628;2024-03-23T14:16:02;22.20;;;14.38;;
35745;SDS011;21870;42.812;74.628;2024-03-23T14:18:29;17.70;;;13.50;;
35745;SDS011;21870;42.812;74.628;2024-03-23T14:20:59;17.65;;;13.52;;
35745;SDS011;21870;42.812;74.628;2024-03-23T14:23:29;19.88;;;14.30;;
35745;SDS011;21870;42.812;74.628;2024-03-23T14:25:59;19.05;;;13.85;;
35745;SDS011;21870;42.812;74.628;2024-03-23T14:28:25;28.95;;;25.35;;
35745;SDS011;21870;42.812;74.628;2024-03-23T14:30:52;23.60;;;15.20;;
35745;SDS011;21870;42.812;74.628;2024-03-23T14:33:20;31.58;;;14.18;;
35745;SDS011;21870;42.812;74.628;2024-03-23T14:35:56;19.25;;;13.23;;
35745;SDS011;21870;42.812;74.628;2024-03-23T14:38:22;23.05;;;14.00;;
35745;SDS011;21870;42.812;74.628;2024-03-23T14:40:49;19.05;;;13.55;;
35745;SDS011;21870;42.812;74.628;2024-03-23T14:43:17;16.27;;;12.98;;
35745;SDS011;21870;42.812;74.628;2024-03-23T14:48:36;19.10;;;11.98;;
35745;SDS011;21870;42.812;74.628;2024-03-23T14:51:02;13.80;;;11.55;;
35745;SDS011;21870;42.812;74.628;2024-03-23T14:53:33;16.00;;;10.98;;
35745;SDS011;21870;42.812;74.628;2024-03-23T14:56:05;15.80;;;9.00;;
35745;SDS011;21870;42.812;74.628;2024-03-23T14:58:32;15.27;;;8.10;;
35745;SDS011;21870;42.812;74.628;2024-03-23T15:01:09;10.02;;;5.55;;
35745;SDS011;21870;42.812;74.628;2024-03-23T15:03:35;7.57;;;5.47;;
35745;SDS011;21870;42.812;74.628;2024-03-23T15:06:05;6.18;;;4.90;;
35745;SDS011;21870;42.812;74.628;2024-03-23T15:08:31;4.90;;;4.15;;
35745;SDS011;21870;42.812;74.628;2024-03-23T15:11:01;5.22;;;4.68;;
35745;SDS011;21870;42.812;74.628;2024-03-23T15:13:33;5.07;;;4.05;;
35745;SDS011;21870;42.812;74.628;2024-03-23T15:16:00;4.30;;;3.42;;
35745;SDS011;21870;42.812;74.628;2024-03-23T15:18:29;4.50;;;3.90;;
35745;SDS011;21870;42.812;74.628;2024-03-23T15:20:59;7.60;;;4.20;;
35745;SDS011;21870;42.812;74.628;2024-03-23T15:23:31;6.43;;;3.97;;
35745;SDS011;21870;42.812;74.628;2024-03-23T15:25:57;4.65;;;4.22;;
35745;SDS011;21870;42.812;74.628;2024-03-23T15:28:24;8.13;;;4.68;;
35745;SDS011;21870;42.812;74.628;2024-03-23T15:30:53;8.10;;;5.10;;
35745;SDS011;21870;42.812;74.628;2024-03-23T15:33:23;6.30;;;4.63;;
35745;SDS011;21870;42.812;74.628;2024-03-23T15:35:49;4.95;;;4.05;;
35745;SDS011;21870;42.812;74.628;2024-03-23T15:38:15;5.95;;;4.90;;
35745;SDS011;21870;42.812;74.628;2024-03-23T15:40:50;5.20;;;4.70;;
35745;SDS011;21870;42.812;74.628;2024-03-23T15:43:19;6.65;;;4.20;;